Clifton, Arizona
Current Conditions -  °F | °C
As of 5:51 AM on Thursday 30 Oct 2014 (Local Time) from KSAD Reporting Station
Clear Clear  
Wind Chill: 48°   Ceiling: Unl
Heat Index: 48°   Visibility: 10mi
Dew Point: 38°   Wind: 0mph
Humidity: 68%   Direction: NA
Pressure: 30.13"   Gusts: NA
Location:  33.05°N, 109.3°W
Report Text: KSAD 301251Z AUTO 00000KT 10SM CLR 09/03 A3013 RMK AO2 SLP175 T00890033
Loading
Personal Weather Stations






























Interactive Weather Map
Tropical Storm Tracking
New forecast layout! Learn more

10-Day Weather Forecast

Advertisements
Track Severe Weather on mobile